sensor_id;sensor_type;location;lat;lon;timestamp;pressure;altitude;pressure_sealevel;temperature
41940;BMP180;23057;48.554;14.454;2023-04-25T00:02:00;93061.00;;;13.40
41940;BMP180;23057;48.554;14.454;2023-04-25T00:04:31;93062.00;;;13.30
41940;BMP180;23057;48.554;14.454;2023-04-25T00:07:03;93060.00;;;13.30
41940;BMP180;23057;48.554;14.454;2023-04-25T00:09:35;93052.00;;;13.30
41940;BMP180;23057;48.554;14.454;2023-04-25T00:12:06;93057.00;;;13.20
41940;BMP180;23057;48.554;14.454;2023-04-25T00:14:36;93057.00;;;13.20
41940;BMP180;23057;48.554;14.454;2023-04-25T00:17:07;93054.00;;;13.20
41940;BMP180;23057;48.554;14.454;2023-04-25T00:19:38;93049.00;;;13.20
41940;BMP180;23057;48.554;14.454;2023-04-25T00:22:09;93052.00;;;13.10
41940;BMP180;23057;48.554;14.454;2023-04-25T00:24:39;93047.00;;;13.10
41940;BMP180;23057;48.554;14.454;2023-04-25T00:27:10;93065.00;;;13.10
41940;BMP180;23057;48.554;14.454;2023-04-25T00:29:41;93062.00;;;13.10
41940;BMP180;23057;48.554;14.454;2023-04-25T00:32:12;93068.00;;;13.10
41940;BMP180;23057;48.554;14.454;2023-04-25T00:34:42;93063.00;;;13.10
41940;BMP180;23057;48.554;14.454;2023-04-25T00:37:13;93065.00;;;13.10
41940;BMP180;23057;48.554;14.454;2023-04-25T00:39:44;93060.00;;;13.00
41940;BMP180;23057;48.554;14.454;2023-04-25T00:42:15;93056.00;;;13.00
41940;BMP180;23057;48.554;14.454;2023-04-25T00:44:46;93062.00;;;13.00
41940;BMP180;23057;48.554;14.454;2023-04-25T00:47:18;93063.00;;;12.80
41940;BMP180;23057;48.554;14.454;2023-04-25T00:49:49;93060.00;;;12.80
41940;BMP180;23057;48.554;14.454;2023-04-25T00:52:20;93060.00;;;12.70
41940;BMP180;23057;48.554;14.454;2023-04-25T00:54:51;93052.00;;;12.70
41940;BMP180;23057;48.554;14.454;2023-04-25T00:57:21;93052.00;;;12.70
41940;BMP180;23057;48.554;14.454;2023-04-25T00:59:52;93055.00;;;12.70
41940;BMP180;23057;48.554;14.454;2023-04-25T01:02:25;93050.00;;;12.70
41940;BMP180;23057;48.554;14.454;2023-04-25T01:04:57;93053.00;;;12.60
41940;BMP180;23057;48.554;14.454;2023-04-25T01:07:28;93048.00;;;12.50
41940;BMP180;23057;48.554;14.454;2023-04-25T01:09:59;93040.00;;;12.50
41940;BMP180;23057;48.554;14.454;2023-04-25T01:12:31;93056.00;;;12.50
41940;BMP180;23057;48.554;14.454;2023-04-25T01:15:02;93046.00;;;12.40
41940;BMP180;23057;48.554;14.454;2023-04-25T01:17:34;93050.00;;;12.40
41940;BMP180;23057;48.554;14.454;2023-04-25T01:20:06;93050.00;;;12.30
41940;BMP180;23057;48.554;14.454;2023-04-25T01:22:39;93059.00;;;12.20
41940;BMP180;23057;48.554;14.454;2023-04-25T01:25:10;93042.00;;;12.10
41940;BMP180;23057;48.554;14.454;2023-04-25T01:27:41;93037.00;;;11.90
41940;BMP180;23057;48.554;14.454;2023-04-25T01:30:13;93040.00;;;11.90
41940;BMP180;23057;48.554;14.454;2023-04-25T01:32:44;93039.00;;;11.90
41940;BMP180;23057;48.554;14.454;2023-04-25T01:35:15;93038.00;;;11.90
41940;BMP180;23057;48.554;14.454;2023-04-25T01:37:46;93035.00;;;11.90
41940;BMP180;23057;48.554;14.454;2023-04-25T01:40:17;93037.00;;;11.90
41940;BMP180;23057;48.554;14.454;2023-04-25T01:42:49;93036.00;;;11.80
41940;BMP180;23057;48.554;14.454;2023-04-25T01:45:20;93033.00;;;11.70
41940;BMP180;23057;48.554;14.454;2023-04-25T01:47:51;93033.00;;;11.70
41940;BMP180;23057;48.554;14.454;2023-04-25T01:50:22;93025.00;;;11.70
41940;BMP180;23057;48.554;14.454;2023-04-25T01:52:53;93025.00;;;11.70
41940;BMP180;23057;48.554;14.454;2023-04-25T01:55:25;93027.00;;;11.70
41940;BMP180;23057;48.554;14.454;2023-04-25T01:57:55;93018.00;;;11.80
41940;BMP180;23057;48.554;14.454;2023-04-25T02:00:26;93029.00;;;11.90
41940;BMP180;23057;48.554;14.454;2023-04-25T02:02:58;93021.00;;;11.80
41940;BMP180;23057;48.554;14.454;2023-04-25T02:05:34;93029.00;;;11.80
41940;BMP180;23057;48.554;14.454;2023-04-25T02:08:08;93024.00;;;11.70
41940;BMP180;23057;48.554;14.454;2023-04-25T02:10:39;93022.00;;;11.70
41940;BMP180;23057;48.554;14.454;2023-04-25T02:13:10;93012.00;;;11.70
41940;BMP180;23057;48.554;14.454;2023-04-25T02:15:41;93007.00;;;11.60
41940;BMP180;23057;48.554;14.454;2023-04-25T02:18:11;93015.00;;;11.60
41940;BMP180;23057;48.554;14.454;2023-04-25T02:20:43;93014.00;;;11.60
41940;BMP180;23057;48.554;14.454;2023-04-25T02:23:14;93011.00;;;11.60
41940;BMP180;23057;48.554;14.454;2023-04-25T02:25:45;93013.00;;;11.60
41940;BMP180;23057;48.554;14.454;2023-04-25T02:28:16;93011.00;;;11.70
41940;BMP180;23057;48.554;14.454;2023-04-25T02:30:47;93002.00;;;11.70
41940;BMP180;23057;48.554;14.454;2023-04-25T02:33:17;93003.00;;;11.70
41940;BMP180;23057;48.554;14.454;2023-04-25T02:35:48;92996.00;;;11.70
41940;BMP180;23057;48.554;14.454;2023-04-25T02:38:19;92998.00;;;11.70
41940;BMP180;23057;48.554;14.454;2023-04-25T02:40:50;92993.00;;;11.60
41940;BMP180;23057;48.554;14.454;2023-04-25T02:43:21;92992.00;;;11.60
41940;BMP180;23057;48.554;14.454;2023-04-25T02:45:52;92992.00;;;11.50
41940;BMP180;23057;48.554;14.454;2023-04-25T02:48:23;92986.00;;;11.50
41940;BMP180;23057;48.554;14.454;2023-04-25T02:50:54;92984.00;;;11.40
41940;BMP180;23057;48.554;14.454;2023-04-25T02:53:25;92979.00;;;11.40
41940;BMP180;23057;48.554;14.454;2023-04-25T02:55:55;92974.00;;;11.50
41940;BMP180;23057;48.554;14.454;2023-04-25T02:58:28;92962.00;;;11.50
41940;BMP180;23057;48.554;14.454;2023-04-25T03:00:59;92956.00;;;11.50
41940;BMP180;23057;48.554;14.454;2023-04-25T03:03:30;92949.00;;;11.50
41940;BMP180;23057;48.554;14.454;2023-04-25T03:06:01;92956.00;;;11.50
41940;BMP180;23057;48.554;14.454;2023-04-25T03:08:32;92963.00;;;11.50
41940;BMP180;23057;48.554;14.454;2023-04-25T03:11:04;92964.00;;;11.50
41940;BMP180;23057;48.554;14.454;2023-04-25T03:13:35;92967.00;;;11.40
41940;BMP180;23057;48.554;14.454;2023-04-25T03:16:06;92966.00;;;11.30
41940;BMP180;23057;48.554;14.454;2023-04-25T03:18:37;92959.00;;;11.30
41940;BMP180;23057;48.554;14.454;2023-04-25T03:21:07;92957.00;;;11.30
41940;BMP180;23057;48.554;14.454;2023-04-25T03:23:38;92965.00;;;11.30
41940;BMP180;23057;48.554;14.454;2023-04-25T03:26:09;92964.00;;;11.30
41940;BMP180;23057;48.554;14.454;2023-04-25T03:28:40;92960.00;;;11.30
41940;BMP180;23057;48.554;14.454;2023-04-25T03:31:11;92960.00;;;11.30
41940;BMP180;23057;48.554;14.454;2023-04-25T03:33:42;92967.00;;;11.20
41940;BMP180;23057;48.554;14.454;2023-04-25T03:36:13;92958.00;;;11.20
41940;BMP180;23057;48.554;14.454;2023-04-25T03:38:44;92953.00;;;11.20
41940;BMP180;23057;48.554;14.454;2023-04-25T03:41:14;92951.00;;;11.20
41940;BMP180;23057;48.554;14.454;2023-04-25T03:43:45;92948.00;;;11.20
41940;BMP180;23057;48.554;14.454;2023-04-25T03:46:16;92946.00;;;11.10
41940;BMP180;23057;48.554;14.454;2023-04-25T03:48:47;92947.00;;;11.00
41940;BMP180;23057;48.554;14.454;2023-04-25T03:51:17;92952.00;;;11.00
41940;BMP180;23057;48.554;14.454;2023-04-25T03:53:48;92954.00;;;11.00
41940;BMP180;23057;48.554;14.454;2023-04-25T03:56:20;92946.00;;;11.00
41940;BMP180;23057;48.554;14.454;2023-04-25T03:58:51;92947.00;;;11.00
41940;BMP180;23057;48.554;14.454;2023-04-25T04:01:22;92944.00;;;11.00
41940;BMP180;23057;48.554;14.454;2023-04-25T04:03:52;92954.00;;;10.90
41940;BMP180;23057;48.554;14.454;2023-04-25T04:06:23;92941.00;;;10.90
41940;BMP180;23057;48.554;14.454;2023-04-25T04:08:54;92949.00;;;10.90
41940;BMP180;23057;48.554;14.454;2023-04-25T04:11:25;92964.00;;;10.80
41940;BMP180;23057;48.554;14.454;2023-04-25T04:13:56;92962.00;;;10.80
41940;BMP180;23057;48.554;14.454;2023-04-25T04:16:27;92957.00;;;10.90
41940;BMP180;23057;48.554;14.454;2023-04-25T04:18:58;92964.00;;;11.10
41940;BMP180;23057;48.554;14.454;2023-04-25T04:21:28;92962.00;;;11.30
41940;BMP180;23057;48.554;14.454;2023-04-25T04:24:00;92965.00;;;11.40
41940;BMP180;23057;48.554;14.454;2023-04-25T04:26:32;92965.00;;;11.50
41940;BMP180;23057;48.554;14.454;2023-04-25T04:29:03;92965.00;;;11.60
41940;BMP180;23057;48.554;14.454;2023-04-25T04:31:33;92967.00;;;11.60
41940;BMP180;23057;48.554;14.454;2023-04-25T04:34:04;92973.00;;;11.50
41940;BMP180;23057;48.554;14.454;2023-04-25T04:36:35;92977.00;;;11.50
41940;BMP180;23057;48.554;14.454;2023-04-25T04:39:06;92970.00;;;11.50
41940;BMP180;23057;48.554;14.454;2023-04-25T04:41:36;92955.00;;;11.40
41940;BMP180;23057;48.554;14.454;2023-04-25T04:44:07;92954.00;;;11.40
41940;BMP180;23057;48.554;14.454;2023-04-25T04:46:39;92949.00;;;11.20
41940;BMP180;23057;48.554;14.454;2023-04-25T04:49:11;92951.00;;;11.10
41940;BMP180;23057;48.554;14.454;2023-04-25T04:51:44;92950.00;;;11.00
41940;BMP180;23057;48.554;14.454;2023-04-25T04:54:17;92939.00;;;11.10
41940;BMP180;23057;48.554;14.454;2023-04-25T04:56:48;92945.00;;;11.50
41940;BMP180;23057;48.554;14.454;2023-04-25T04:59:19;92956.00;;;11.90
41940;BMP180;23057;48.554;14.454;2023-04-25T05:01:50;92954.00;;;12.30
41940;BMP180;23057;48.554;14.454;2023-04-25T05:04:20;92955.00;;;12.70
41940;BMP180;23057;48.554;14.454;2023-04-25T05:06:51;92952.00;;;13.00
41940;BMP180;23057;48.554;14.454;2023-04-25T05:09:22;92945.00;;;13.40
41940;BMP180;23057;48.554;14.454;2023-04-25T05:11:56;92950.00;;;13.70
41940;BMP180;23057;48.554;14.454;2023-04-25T05:14:26;92950.00;;;13.90
41940;BMP180;23057;48.554;14.454;2023-04-25T05:16:57;92947.00;;;13.90
41940;BMP180;23057;48.554;14.454;2023-04-25T05:19:28;92954.00;;;14.00
41940;BMP180;23057;48.554;14.454;2023-04-25T05:21:59;92966.00;;;14.30
41940;BMP180;23057;48.554;14.454;2023-04-25T05:24:30;92946.00;;;14.40
41940;BMP180;23057;48.554;14.454;2023-04-25T05:27:01;92964.00;;;14.60
41940;BMP180;23057;48.554;14.454;2023-04-25T05:29:32;92958.00;;;14.80
41940;BMP180;23057;48.554;14.454;2023-04-25T05:32:04;92954.00;;;15.10
41940;BMP180;23057;48.554;14.454;2023-04-25T05:34:35;92950.00;;;15.20
41940;BMP180;23057;48.554;14.454;2023-04-25T05:37:07;92950.00;;;15.40
41940;BMP180;23057;48.554;14.454;2023-04-25T05:39:38;92945.00;;;15.70
41940;BMP180;23057;48.554;14.454;2023-04-25T05:42:08;92930.00;;;15.90
41940;BMP180;23057;48.554;14.454;2023-04-25T05:44:39;92939.00;;;16.00
41940;BMP180;23057;48.554;14.454;2023-04-25T05:47:10;92932.00;;;16.00
41940;BMP180;23057;48.554;14.454;2023-04-25T05:49:41;92942.00;;;16.00
41940;BMP180;23057;48.554;14.454;2023-04-25T05:52:11;92947.00;;;16.00
41940;BMP180;23057;48.554;14.454;2023-04-25T05:54:42;92953.00;;;15.90
41940;BMP180;23057;48.554;14.454;2023-04-25T05:57:31;92949.00;;;15.80
41940;BMP180;23057;48.554;14.454;2023-04-25T06:00:02;92961.00;;;16.00
41940;BMP180;23057;48.554;14.454;2023-04-25T06:02:35;92957.00;;;16.30
41940;BMP180;23057;48.554;14.454;2023-04-25T06:05:06;92962.00;;;16.60
41940;BMP180;23057;48.554;14.454;2023-04-25T06:07:37;92957.00;;;16.90
41940;BMP180;23057;48.554;14.454;2023-04-25T06:10:08;92958.00;;;17.20
41940;BMP180;23057;48.554;14.454;2023-04-25T06:12:39;92951.00;;;17.30
41940;BMP180;23057;48.554;14.454;2023-04-25T06:15:10;92956.00;;;17.50
41940;BMP180;23057;48.554;14.454;2023-04-25T06:17:40;92947.00;;;17.50
41940;BMP180;23057;48.554;14.454;2023-04-25T06:20:11;92953.00;;;17.50
41940;BMP180;23057;48.554;14.454;2023-04-25T06:22:42;92960.00;;;17.40
41940;BMP180;23057;48.554;14.454;2023-04-25T06:25:13;92967.00;;;17.40
41940;BMP180;23057;48.554;14.454;2023-04-25T06:27:44;92962.00;;;17.30
41940;BMP180;23057;48.554;14.454;2023-04-25T06:30:14;92964.00;;;17.20
41940;BMP180;23057;48.554;14.454;2023-04-25T06:32:46;92968.00;;;17.10
41940;BMP180;23057;48.554;14.454;2023-04-25T06:35:18;92962.00;;;16.90
41940;BMP180;23057;48.554;14.454;2023-04-25T06:37:49;92967.00;;;16.60
41940;BMP180;23057;48.554;14.454;2023-04-25T06:40:20;92964.00;;;16.40
41940;BMP180;23057;48.554;14.454;2023-04-25T06:42:51;92944.00;;;16.20
41940;BMP180;23057;48.554;14.454;2023-04-25T06:45:21;92942.00;;;16.00
41940;BMP180;23057;48.554;14.454;2023-04-25T06:47:52;92945.00;;;15.80
41940;BMP180;23057;48.554;14.454;2023-04-25T06:50:23;92938.00;;;15.70
41940;BMP180;23057;48.554;14.454;2023-04-25T06:52:54;92954.00;;;15.60
41940;BMP180;23057;48.554;14.454;2023-04-25T06:55:24;92948.00;;;15.50
41940;BMP180;23057;48.554;14.454;2023-04-25T06:57:55;92954.00;;;15.50
41940;BMP180;23057;48.554;14.454;2023-04-25T07:00:26;92937.00;;;15.40
41940;BMP180;23057;48.554;14.454;2023-04-25T07:02:56;92934.00;;;15.40
41940;BMP180;23057;48.554;14.454;2023-04-25T07:05:27;92942.00;;;15.30
41940;BMP180;23057;48.554;14.454;2023-04-25T07:07:58;92938.00;;;15.20
41940;BMP180;23057;48.554;14.454;2023-04-25T07:10:29;92928.00;;;15.20
41940;BMP180;23057;48.554;14.454;2023-04-25T07:13:00;92928.00;;;15.20
41940;BMP180;23057;48.554;14.454;2023-04-25T07:15:30;92926.00;;;15.30
41940;BMP180;23057;48.554;14.454;2023-04-25T07:18:01;92928.00;;;15.30
41940;BMP180;23057;48.554;14.454;2023-04-25T07:20:32;92921.00;;;15.40
41940;BMP180;23057;48.554;14.454;2023-04-25T07:23:03;92921.00;;;15.70
41940;BMP180;23057;48.554;14.454;2023-04-25T07:25:33;92917.00;;;16.10
41940;BMP180;23057;48.554;14.454;2023-04-25T07:28:05;92916.00;;;16.50
41940;BMP180;23057;48.554;14.454;2023-04-25T07:30:36;92910.00;;;16.80
41940;BMP180;23057;48.554;14.454;2023-04-25T07:33:07;92921.00;;;17.10
41940;BMP180;23057;48.554;14.454;2023-04-25T07:35:37;92911.00;;;17.30
41940;BMP180;23057;48.554;14.454;2023-04-25T07:38:08;92915.00;;;17.40
41940;BMP180;23057;48.554;14.454;2023-04-25T07:40:40;92906.00;;;17.50
41940;BMP180;23057;48.554;14.454;2023-04-25T07:43:11;92904.00;;;17.70
41940;BMP180;23057;48.554;14.454;2023-04-25T07:45:45;92912.00;;;18.00
41940;BMP180;23057;48.554;14.454;2023-04-25T07:48:17;92912.00;;;18.10
41940;BMP180;23057;48.554;14.454;2023-04-25T07:50:51;92911.00;;;18.20
41940;BMP180;23057;48.554;14.454;2023-04-25T07:53:22;92907.00;;;18.40
41940;BMP180;23057;48.554;14.454;2023-04-25T07:55:53;92907.00;;;18.60
41940;BMP180;23057;48.554;14.454;2023-04-25T07:58:24;92910.00;;;18.80
41940;BMP180;23057;48.554;14.454;2023-04-25T08:00:54;92904.00;;;18.90
41940;BMP180;23057;48.554;14.454;2023-04-25T08:03:25;92908.00;;;18.70
41940;BMP180;23057;48.554;14.454;2023-04-25T08:05:56;92912.00;;;18.40
41940;BMP180;23057;48.554;14.454;2023-04-25T08:08:27;92906.00;;;18.30
41940;BMP180;23057;48.554;14.454;2023-04-25T08:10:57;92909.00;;;18.10
41940;BMP180;23057;48.554;14.454;2023-04-25T08:13:28;92901.00;;;17.90
41940;BMP180;23057;48.554;14.454;2023-04-25T08:15:59;92906.00;;;17.90
41940;BMP180;23057;48.554;14.454;2023-04-25T08:18:30;92898.00;;;18.00
41940;BMP180;23057;48.554;14.454;2023-04-25T08:21:01;92887.00;;;18.00
41940;BMP180;23057;48.554;14.454;2023-04-25T08:23:32;92882.00;;;17.90
41940;BMP180;23057;48.554;14.454;2023-04-25T08:26:03;92879.00;;;17.90
41940;BMP180;23057;48.554;14.454;2023-04-25T08:28:35;92891.00;;;17.80
41940;BMP180;23057;48.554;14.454;2023-04-25T08:31:05;92895.00;;;17.70
41940;BMP180;23057;48.554;14.454;2023-04-25T08:33:37;92883.00;;;17.50
41940;BMP180;23057;48.554;14.454;2023-04-25T08:36:07;92887.00;;;17.30
41940;BMP180;23057;48.554;14.454;2023-04-25T08:38:38;92897.00;;;17.20
41940;BMP180;23057;48.554;14.454;2023-04-25T08:41:10;92894.00;;;17.10
41940;BMP180;23057;48.554;14.454;2023-04-25T08:43:42;92899.00;;;17.00
41940;BMP180;23057;48.554;14.454;2023-04-25T08:46:17;92901.00;;;17.00
41940;BMP180;23057;48.554;14.454;2023-04-25T08:48:49;92899.00;;;17.00
41940;BMP180;23057;48.554;14.454;2023-04-25T08:51:22;92904.00;;;17.00
41940;BMP180;23057;48.554;14.454;2023-04-25T08:53:56;92904.00;;;17.00
41940;BMP180;23057;48.554;14.454;2023-04-25T08:56:38;92901.00;;;17.00
41940;BMP180;23057;48.554;14.454;2023-04-25T08:59:14;92904.00;;;17.00
41940;BMP180;23057;48.554;14.454;2023-04-25T09:01:45;92903.00;;;16.90
41940;BMP180;23057;48.554;14.454;2023-04-25T09:04:15;92898.00;;;16.80
41940;BMP180;23057;48.554;14.454;2023-04-25T09:06:48;92895.00;;;16.70
41940;BMP180;23057;48.554;14.454;2023-04-25T09:09:18;92914.00;;;16.60
41940;BMP180;23057;48.554;14.454;2023-04-25T09:11:49;92922.00;;;16.40
41940;BMP180;23057;48.554;14.454;2023-04-25T09:14:22;92933.00;;;16.10
41940;BMP180;23057;48.554;14.454;2023-04-25T09:19:28;92951.00;;;15.20
41940;BMP180;23057;48.554;14.454;2023-04-25T09:22:03;92967.00;;;14.80
41940;BMP180;23057;48.554;14.454;2023-04-25T09:24:39;92971.00;;;14.60
41940;BMP180;23057;48.554;14.454;2023-04-25T09:27:20;92960.00;;;14.30
41940;BMP180;23057;48.554;14.454;2023-04-25T09:29:57;92952.00;;;14.20
41940;BMP180;23057;48.554;14.454;2023-04-25T09:32:31;92945.00;;;14.30
41940;BMP180;23057;48.554;14.454;2023-04-25T09:35:02;92945.00;;;14.50
41940;BMP180;23057;48.554;14.454;2023-04-25T09:37:34;92944.00;;;14.90
41940;BMP180;23057;48.554;14.454;2023-04-25T09:40:06;92949.00;;;15.30
41940;BMP180;23057;48.554;14.454;2023-04-25T09:42:41;92947.00;;;15.70
41940;BMP180;23057;48.554;14.454;2023-04-25T09:45:13;92929.00;;;16.10
41940;BMP180;23057;48.554;14.454;2023-04-25T09:47:46;92943.00;;;16.30
41940;BMP180;23057;48.554;14.454;2023-04-25T09:50:17;92940.00;;;16.70
41940;BMP180;23057;48.554;14.454;2023-04-25T09:53:05;92939.00;;;16.90
41940;BMP180;23057;48.554;14.454;2023-04-25T09:55:37;92937.00;;;17.10
41940;BMP180;23057;48.554;14.454;2023-04-25T09:58:10;92939.00;;;17.40
41940;BMP180;23057;48.554;14.454;2023-04-25T10:00:42;92937.00;;;17.60
41940;BMP180;23057;48.554;14.454;2023-04-25T10:03:14;92944.00;;;17.70
41940;BMP180;23057;48.554;14.454;2023-04-25T10:05:46;92939.00;;;17.90
41940;BMP180;23057;48.554;14.454;2023-04-25T10:08:19;92938.00;;;18.00
41940;BMP180;23057;48.554;14.454;2023-04-25T10:10:51;92937.00;;;18.20
41940;BMP180;23057;48.554;14.454;2023-04-25T10:13:23;92929.00;;;18.50
41940;BMP180;23057;48.554;14.454;2023-04-25T10:15:54;92924.00;;;18.60
41940;BMP180;23057;48.554;14.454;2023-04-25T10:18:28;92929.00;;;18.90
41940;BMP180;23057;48.554;14.454;2023-04-25T10:21:02;92918.00;;;18.90
41940;BMP180;23057;48.554;14.454;2023-04-25T10:23:36;92916.00;;;18.90
41940;BMP180;23057;48.554;14.454;2023-04-25T10:26:08;92923.00;;;18.90
41940;BMP180;23057;48.554;14.454;2023-04-25T10:28:59;92916.00;;;19.00
41940;BMP180;23057;48.554;14.454;2023-04-25T10:31:31;92926.00;;;18.90
41940;BMP180;23057;48.554;14.454;2023-04-25T10:34:02;92918.00;;;18.70
41940;BMP180;23057;48.554;14.454;2023-04-25T10:36:33;92905.00;;;18.80
41940;BMP180;23057;48.554;14.454;2023-04-25T10:39:05;92907.00;;;18.70
41940;BMP180;23057;48.554;14.454;2023-04-25T10:41:53;92909.00;;;18.70
41940;BMP180;23057;48.554;14.454;2023-04-25T10:44:28;92910.00;;;18.70
41940;BMP180;23057;48.554;14.454;2023-04-25T10:47:01;92919.00;;;18.70
41940;BMP180;23057;48.554;14.454;2023-04-25T10:49:38;92909.00;;;18.70
41940;BMP180;23057;48.554;14.454;2023-04-25T10:52:19;92912.00;;;18.70
41940;BMP180;23057;48.554;14.454;2023-04-25T10:54:57;92910.00;;;18.80
41940;BMP180;23057;48.554;14.454;2023-04-25T11:00:13;92902.00;;;19.00
41940;BMP180;23057;48.554;14.454;2023-04-25T11:02:52;92912.00;;;19.00
41940;BMP180;23057;48.554;14.454;2023-04-25T11:08:01;92903.00;;;19.50
41940;BMP180;23057;48.554;14.454;2023-04-25T11:10:34;92908.00;;;19.70
41940;BMP180;23057;48.554;14.454;2023-04-25T11:13:07;92905.00;;;19.80
41940;BMP180;23057;48.554;14.454;2023-04-25T11:15:38;92888.00;;;19.80
41940;BMP180;23057;48.554;14.454;2023-04-25T11:18:09;92896.00;;;19.70
41940;BMP180;23057;48.554;14.454;2023-04-25T11:20:43;92900.00;;;19.70
41940;BMP180;23057;48.554;14.454;2023-04-25T11:23:15;92900.00;;;19.90
41940;BMP180;23057;48.554;14.454;2023-04-25T11:25:46;92899.00;;;19.90
41940;BMP180;23057;48.554;14.454;2023-04-25T11:28:21;92898.00;;;19.70
41940;BMP180;23057;48.554;14.454;2023-04-25T11:30:52;92912.00;;;19.40
41940;BMP180;23057;48.554;14.454;2023-04-25T11:33:24;92914.00;;;19.00
41940;BMP180;23057;48.554;14.454;2023-04-25T11:35:55;92926.00;;;18.70
41940;BMP180;23057;48.554;14.454;2023-04-25T11:38:26;92915.00;;;18.60
41940;BMP180;23057;48.554;14.454;2023-04-25T11:40:57;92917.00;;;18.60
41940;BMP180;23057;48.554;14.454;2023-04-25T11:43:28;92918.00;;;18.60
41940;BMP180;23057;48.554;14.454;2023-04-25T11:45:59;92923.00;;;18.60
41940;BMP180;23057;48.554;14.454;2023-04-25T11:48:37;92913.00;;;18.60
41940;BMP180;23057;48.554;14.454;2023-04-25T11:51:09;92915.00;;;18.60
41940;BMP180;23057;48.554;14.454;2023-04-25T11:53:44;92925.00;;;18.70
41940;BMP180;23057;48.554;14.454;2023-04-25T11:56:15;92908.00;;;18.80
41940;BMP180;23057;48.554;14.454;2023-04-25T11:58:57;92913.00;;;19.00
41940;BMP180;23057;48.554;14.454;2023-04-25T12:01:34;92915.00;;;19.00
41940;BMP180;23057;48.554;14.454;2023-04-25T12:04:23;92919.00;;;19.10
41940;BMP180;23057;48.554;14.454;2023-04-25T12:06:55;92921.00;;;19.30
41940;BMP180;23057;48.554;14.454;2023-04-25T12:09:33;92916.00;;;19.50
41940;BMP180;23057;48.554;14.454;2023-04-25T12:12:04;92918.00;;;19.40
41940;BMP180;23057;48.554;14.454;2023-04-25T12:14:35;92913.00;;;19.40
41940;BMP180;23057;48.554;14.454;2023-04-25T12:17:06;92915.00;;;19.30
41940;BMP180;23057;48.554;14.454;2023-04-25T12:19:38;92916.00;;;19.20
41940;BMP180;23057;48.554;14.454;2023-04-25T12:22:24;92922.00;;;19.00
41940;BMP180;23057;48.554;14.454;2023-04-25T12:24:55;92916.00;;;19.00
41940;BMP180;23057;48.554;14.454;2023-04-25T12:27:30;92912.00;;;18.90
41940;BMP180;23057;48.554;14.454;2023-04-25T12:30:02;92913.00;;;18.90
41940;BMP180;23057;48.554;14.454;2023-04-25T12:32:34;92905.00;;;18.90
41940;BMP180;23057;48.554;14.454;2023-04-25T12:35:06;92900.00;;;18.70
41940;BMP180;23057;48.554;14.454;2023-04-25T12:37:37;92909.00;;;18.60
41940;BMP180;23057;48.554;14.454;2023-04-25T12:40:08;92918.00;;;18.50
41940;BMP180;23057;48.554;14.454;2023-04-25T12:42:39;92913.00;;;18.30
41940;BMP180;23057;48.554;14.454;2023-04-25T12:45:09;92913.00;;;18.20
41940;BMP180;23057;48.554;14.454;2023-04-25T12:47:40;92926.00;;;18.10
41940;BMP180;23057;48.554;14.454;2023-04-25T12:50:11;92920.00;;;17.90
41940;BMP180;23057;48.554;14.454;2023-04-25T12:52:41;92923.00;;;17.80
41940;BMP180;23057;48.554;14.454;2023-04-25T12:55:12;92926.00;;;17.80
41940;BMP180;23057;48.554;14.454;2023-04-25T12:57:43;92917.00;;;17.90
41940;BMP180;23057;48.554;14.454;2023-04-25T13:00:14;92917.00;;;18.20
41940;BMP180;23057;48.554;14.454;2023-04-25T13:02:45;92905.00;;;18.50
41940;BMP180;23057;48.554;14.454;2023-04-25T13:05:19;92907.00;;;18.80
41940;BMP180;23057;48.554;14.454;2023-04-25T13:07:50;92913.00;;;19.10
41940;BMP180;23057;48.554;14.454;2023-04-25T13:10:21;92914.00;;;19.30
41940;BMP180;23057;48.554;14.454;2023-04-25T13:12:52;92909.00;;;19.30
41940;BMP180;23057;48.554;14.454;2023-04-25T13:15:23;92918.00;;;19.20
41940;BMP180;23057;48.554;14.454;2023-04-25T13:17:54;92910.00;;;19.10
41940;BMP180;23057;48.554;14.454;2023-04-25T13:20:26;92907.00;;;18.80
41940;BMP180;23057;48.554;14.454;2023-04-25T13:22:57;92914.00;;;18.80
41940;BMP180;23057;48.554;14.454;2023-04-25T13:25:27;92910.00;;;18.80
41940;BMP180;23057;48.554;14.454;2023-04-25T13:27:58;92918.00;;;18.80
41940;BMP180;23057;48.554;14.454;2023-04-25T13:30:29;92912.00;;;19.00
41940;BMP180;23057;48.554;14.454;2023-04-25T13:32:59;92924.00;;;19.10
41940;BMP180;23057;48.554;14.454;2023-04-25T13:35:34;92920.00;;;19.20
41940;BMP180;23057;48.554;14.454;2023-04-25T13:38:06;92918.00;;;19.30
41940;BMP180;23057;48.554;14.454;2023-04-25T13:40:37;92917.00;;;19.20
41940;BMP180;23057;48.554;14.454;2023-04-25T13:43:07;92926.00;;;19.30
41940;BMP180;23057;48.554;14.454;2023-04-25T13:45:39;92928.00;;;19.40
41940;BMP180;23057;48.554;14.454;2023-04-25T13:48:09;92935.00;;;19.50
41940;BMP180;23057;48.554;14.454;2023-04-25T13:50:40;92931.00;;;19.40
41940;BMP180;23057;48.554;14.454;2023-04-25T13:53:11;92959.00;;;19.00
41940;BMP180;23057;48.554;14.454;2023-04-25T13:55:42;92981.00;;;18.60
41940;BMP180;23057;48.554;14.454;2023-04-25T13:58:13;92992.00;;;18.30
41940;BMP180;23057;48.554;14.454;2023-04-25T14:00:43;93002.00;;;17.90
41940;BMP180;23057;48.554;14.454;2023-04-25T14:03:16;93017.00;;;17.40
41940;BMP180;23057;48.554;14.454;2023-04-25T14:05:47;93025.00;;;17.00
41940;BMP180;23057;48.554;14.454;2023-04-25T14:08:17;93035.00;;;16.70
41940;BMP180;23057;48.554;14.454;2023-04-25T14:10:48;93040.00;;;16.30
41940;BMP180;23057;48.554;14.454;2023-04-25T14:13:19;93041.00;;;15.90
41940;BMP180;23057;48.554;14.454;2023-04-25T14:15:50;93034.00;;;15.60
41940;BMP180;23057;48.554;14.454;2023-04-25T14:18:21;93053.00;;;15.30
41940;BMP180;23057;48.554;14.454;2023-04-25T14:20:51;93048.00;;;15.10
41940;BMP180;23057;48.554;14.454;2023-04-25T14:23:22;93046.00;;;15.00
41940;BMP180;23057;48.554;14.454;2023-04-25T14:25:53;93054.00;;;14.90
41940;BMP180;23057;48.554;14.454;2023-04-25T14:28:24;93043.00;;;14.70
41940;BMP180;23057;48.554;14.454;2023-04-25T14:30:55;93032.00;;;14.60